sensor_id;sensor_type;location;lat;lon;timestamp;P1;durP1;ratioP1;P2;durP2;ratioP2
19026;SDS011;9646;52.034;5.554;2022-11-20T00:00:40;20.75;;;14.80;;
19026;SDS011;9646;52.034;5.554;2022-11-20T00:03:07;18.85;;;12.77;;
19026;SDS011;9646;52.034;5.554;2022-11-20T00:05:34;15.75;;;12.35;;
19026;SDS011;9646;52.034;5.554;2022-11-20T00:08:02;16.10;;;11.35;;
19026;SDS011;9646;52.034;5.554;2022-11-20T00:10:30;14.73;;;10.10;;
19026;SDS011;9646;52.034;5.554;2022-11-20T00:12:57;14.93;;;10.88;;
19026;SDS011;9646;52.034;5.554;2022-11-20T00:15:24;15.25;;;9.65;;
19026;SDS011;9646;52.034;5.554;2022-11-20T00:17:51;13.15;;;9.88;;
19026;SDS011;9646;52.034;5.554;2022-11-20T00:20:18;16.33;;;10.85;;
19026;SDS011;9646;52.034;5.554;2022-11-20T00:22:45;25.17;;;15.40;;
19026;SDS011;9646;52.034;5.554;2022-11-20T00:25:14;27.73;;;15.80;;
19026;SDS011;9646;52.034;5.554;2022-11-20T00:27:41;22.95;;;14.63;;
19026;SDS011;9646;52.034;5.554;2022-11-20T00:30:08;28.45;;;16.55;;
19026;SDS011;9646;52.034;5.554;2022-11-20T00:32:35;19.88;;;13.68;;
19026;SDS011;9646;52.034;5.554;2022-11-20T00:35:02;17.88;;;11.27;;
19026;SDS011;9646;52.034;5.554;2022-11-20T00:37:29;18.35;;;12.00;;
19026;SDS011;9646;52.034;5.554;2022-11-20T00:39:56;17.02;;;11.60;;
19026;SDS011;9646;52.034;5.554;2022-11-20T00:42:25;18.75;;;12.93;;
19026;SDS011;9646;52.034;5.554;2022-11-20T00:44:52;16.98;;;11.88;;
19026;SDS011;9646;52.034;5.554;2022-11-20T00:47:19;14.82;;;9.88;;
19026;SDS011;9646;52.034;5.554;2022-11-20T00:49:46;14.18;;;10.52;;
19026;SDS011;9646;52.034;5.554;2022-11-20T00:52:13;12.25;;;9.93;;
19026;SDS011;9646;52.034;5.554;2022-11-20T00:54:40;14.18;;;10.23;;
19026;SDS011;9646;52.034;5.554;2022-11-20T00:57:07;13.52;;;10.20;;
19026;SDS011;9646;52.034;5.554;2022-11-20T00:59:35;14.05;;;10.73;;
19026;SDS011;9646;52.034;5.554;2022-11-20T01:02:02;17.83;;;12.13;;
19026;SDS011;9646;52.034;5.554;2022-11-20T01:04:30;17.40;;;11.63;;
19026;SDS011;9646;52.034;5.554;2022-11-20T01:06:57;15.43;;;10.82;;
19026;SDS011;9646;52.034;5.554;2022-11-20T01:09:24;16.35;;;10.32;;
19026;SDS011;9646;52.034;5.554;2022-11-20T01:11:51;14.90;;;9.27;;
19026;SDS011;9646;52.034;5.554;2022-11-20T01:14:18;14.25;;;9.82;;
19026;SDS011;9646;52.034;5.554;2022-11-20T01:16:48;13.25;;;9.57;;
19026;SDS011;9646;52.034;5.554;2022-11-20T01:19:16;12.90;;;8.95;;
19026;SDS011;9646;52.034;5.554;2022-11-20T01:21:44;14.27;;;9.38;;
19026;SDS011;9646;52.034;5.554;2022-11-20T01:24:13;14.50;;;9.70;;
19026;SDS011;9646;52.034;5.554;2022-11-20T01:26:40;12.20;;;9.95;;
19026;SDS011;9646;52.034;5.554;2022-11-20T01:29:08;18.83;;;9.82;;
19026;SDS011;9646;52.034;5.554;2022-11-20T01:31:39;13.32;;;10.30;;
19026;SDS011;9646;52.034;5.554;2022-11-20T01:34:09;12.15;;;9.85;;
19026;SDS011;9646;52.034;5.554;2022-11-20T01:36:37;14.25;;;10.13;;
19026;SDS011;9646;52.034;5.554;2022-11-20T01:39:05;16.60;;;10.05;;
19026;SDS011;9646;52.034;5.554;2022-11-20T01:41:32;16.05;;;10.45;;
19026;SDS011;9646;52.034;5.554;2022-11-20T01:44:18;13.35;;;9.18;;
19026;SDS011;9646;52.034;5.554;2022-11-20T01:46:48;11.23;;;8.93;;
19026;SDS011;9646;52.034;5.554;2022-11-20T01:49:21;13.20;;;9.00;;
19026;SDS011;9646;52.034;5.554;2022-11-20T01:51:50;12.65;;;9.45;;
19026;SDS011;9646;52.034;5.554;2022-11-20T01:54:19;13.95;;;9.52;;
19026;SDS011;9646;52.034;5.554;2022-11-20T01:56:48;12.40;;;8.50;;
19026;SDS011;9646;52.034;5.554;2022-11-20T01:59:17;13.00;;;9.77;;
19026;SDS011;9646;52.034;5.554;2022-11-20T02:01:45;11.38;;;8.27;;
19026;SDS011;9646;52.034;5.554;2022-11-20T02:04:12;17.00;;;9.73;;
19026;SDS011;9646;52.034;5.554;2022-11-20T02:06:42;13.63;;;9.80;;
19026;SDS011;9646;52.034;5.554;2022-11-20T02:09:10;16.30;;;10.63;;
19026;SDS011;9646;52.034;5.554;2022-11-20T02:11:37;14.85;;;10.55;;
19026;SDS011;9646;52.034;5.554;2022-11-20T02:14:04;13.00;;;9.52;;
19026;SDS011;9646;52.034;5.554;2022-11-20T02:16:31;14.52;;;9.52;;
19026;SDS011;9646;52.034;5.554;2022-11-20T02:19:01;17.60;;;9.13;;
19026;SDS011;9646;52.034;5.554;2022-11-20T02:21:30;15.60;;;10.13;;
19026;SDS011;9646;52.034;5.554;2022-11-20T02:24:11;13.85;;;9.30;;
19026;SDS011;9646;52.034;5.554;2022-11-20T02:26:41;12.27;;;8.45;;
19026;SDS011;9646;52.034;5.554;2022-11-20T02:29:09;12.82;;;9.30;;
19026;SDS011;9646;52.034;5.554;2022-11-20T02:31:37;12.43;;;9.30;;
19026;SDS011;9646;52.034;5.554;2022-11-20T02:34:04;11.02;;;8.75;;
19026;SDS011;9646;52.034;5.554;2022-11-20T02:36:32;12.25;;;8.57;;
19026;SDS011;9646;52.034;5.554;2022-11-20T02:39:00;13.13;;;9.45;;
19026;SDS011;9646;52.034;5.554;2022-11-20T02:41:32;11.98;;;9.23;;
19026;SDS011;9646;52.034;5.554;2022-11-20T02:43:59;12.52;;;8.95;;
19026;SDS011;9646;52.034;5.554;2022-11-20T02:46:26;12.05;;;8.85;;
19026;SDS011;9646;52.034;5.554;2022-11-20T02:48:53;14.10;;;8.77;;
19026;SDS011;9646;52.034;5.554;2022-11-20T02:51:21;14.70;;;9.93;;
19026;SDS011;9646;52.034;5.554;2022-11-20T02:53:48;14.23;;;9.95;;
19026;SDS011;9646;52.034;5.554;2022-11-20T02:56:15;15.07;;;10.15;;
19026;SDS011;9646;52.034;5.554;2022-11-20T02:58:43;14.38;;;10.02;;
19026;SDS011;9646;52.034;5.554;2022-11-20T03:01:10;15.32;;;10.30;;
19026;SDS011;9646;52.034;5.554;2022-11-20T03:03:38;13.77;;;9.95;;
19026;SDS011;9646;52.034;5.554;2022-11-20T03:06:05;14.75;;;10.43;;
19026;SDS011;9646;52.034;5.554;2022-11-20T03:08:32;13.98;;;9.38;;
19026;SDS011;9646;52.034;5.554;2022-11-20T03:11:02;14.90;;;9.82;;
19026;SDS011;9646;52.034;5.554;2022-11-20T03:13:29;13.98;;;10.00;;
19026;SDS011;9646;52.034;5.554;2022-11-20T03:15:57;12.80;;;9.05;;
19026;SDS011;9646;52.034;5.554;2022-11-20T03:18:27;12.05;;;8.95;;
19026;SDS011;9646;52.034;5.554;2022-11-20T03:20:56;13.13;;;9.40;;
19026;SDS011;9646;52.034;5.554;2022-11-20T03:23:24;12.40;;;9.23;;
19026;SDS011;9646;52.034;5.554;2022-11-20T03:25:51;11.35;;;8.65;;
19026;SDS011;9646;52.034;5.554;2022-11-20T03:28:18;11.48;;;8.82;;
19026;SDS011;9646;52.034;5.554;2022-11-20T03:30:45;12.32;;;9.15;;
19026;SDS011;9646;52.034;5.554;2022-11-20T03:33:14;11.35;;;8.13;;
19026;SDS011;9646;52.034;5.554;2022-11-20T03:35:41;11.77;;;8.45;;
19026;SDS011;9646;52.034;5.554;2022-11-20T03:38:08;10.52;;;8.55;;
19026;SDS011;9646;52.034;5.554;2022-11-20T03:40:35;11.70;;;8.50;;
19026;SDS011;9646;52.034;5.554;2022-11-20T03:43:02;13.13;;;8.90;;
19026;SDS011;9646;52.034;5.554;2022-11-20T03:45:29;11.73;;;8.35;;
19026;SDS011;9646;52.034;5.554;2022-11-20T03:47:56;12.32;;;8.38;;
19026;SDS011;9646;52.034;5.554;2022-11-20T03:50:24;10.82;;;8.18;;
19026;SDS011;9646;52.034;5.554;2022-11-20T03:52:51;11.13;;;8.43;;
19026;SDS011;9646;52.034;5.554;2022-11-20T03:55:18;10.70;;;7.97;;
19026;SDS011;9646;52.034;5.554;2022-11-20T03:57:45;10.70;;;8.20;;
19026;SDS011;9646;52.034;5.554;2022-11-20T04:00:13;11.45;;;8.02;;
19026;SDS011;9646;52.034;5.554;2022-11-20T04:02:40;9.05;;;7.63;;
19026;SDS011;9646;52.034;5.554;2022-11-20T04:05:07;13.35;;;8.50;;
19026;SDS011;9646;52.034;5.554;2022-11-20T04:07:36;10.90;;;8.80;;
19026;SDS011;9646;52.034;5.554;2022-11-20T04:10:03;11.10;;;8.20;;
19026;SDS011;9646;52.034;5.554;2022-11-20T04:12:31;13.73;;;8.60;;
19026;SDS011;9646;52.034;5.554;2022-11-20T04:14:59;12.60;;;7.95;;
19026;SDS011;9646;52.034;5.554;2022-11-20T04:17:26;10.05;;;7.97;;
19026;SDS011;9646;52.034;5.554;2022-11-20T04:19:53;10.43;;;7.88;;
19026;SDS011;9646;52.034;5.554;2022-11-20T04:22:21;11.13;;;8.38;;
19026;SDS011;9646;52.034;5.554;2022-11-20T04:24:49;11.48;;;8.35;;
19026;SDS011;9646;52.034;5.554;2022-11-20T04:27:16;12.45;;;7.85;;
19026;SDS011;9646;52.034;5.554;2022-11-20T04:29:49;11.02;;;8.52;;
19026;SDS011;9646;52.034;5.554;2022-11-20T04:32:17;11.18;;;8.45;;
19026;SDS011;9646;52.034;5.554;2022-11-20T04:34:44;10.75;;;8.15;;
19026;SDS011;9646;52.034;5.554;2022-11-20T04:37:11;10.80;;;8.18;;
19026;SDS011;9646;52.034;5.554;2022-11-20T04:39:38;13.05;;;8.82;;
19026;SDS011;9646;52.034;5.554;2022-11-20T04:42:07;10.80;;;8.27;;
19026;SDS011;9646;52.034;5.554;2022-11-20T04:44:52;11.57;;;7.93;;
19026;SDS011;9646;52.034;5.554;2022-11-20T04:47:19;11.00;;;8.15;;
19026;SDS011;9646;52.034;5.554;2022-11-20T04:49:46;10.45;;;7.82;;
19026;SDS011;9646;52.034;5.554;2022-11-20T04:52:13;11.43;;;8.05;;
19026;SDS011;9646;52.034;5.554;2022-11-20T04:54:40;10.38;;;7.90;;
19026;SDS011;9646;52.034;5.554;2022-11-20T04:57:09;10.15;;;8.10;;
19026;SDS011;9646;52.034;5.554;2022-11-20T04:59:36;11.93;;;7.63;;
19026;SDS011;9646;52.034;5.554;2022-11-20T05:02:03;11.38;;;8.25;;
19026;SDS011;9646;52.034;5.554;2022-11-20T05:04:30;12.80;;;8.02;;
19026;SDS011;9646;52.034;5.554;2022-11-20T05:06:57;11.35;;;8.13;;
19026;SDS011;9646;52.034;5.554;2022-11-20T05:09:24;10.02;;;7.78;;
19026;SDS011;9646;52.034;5.554;2022-11-20T05:11:51;11.35;;;7.95;;
19026;SDS011;9646;52.034;5.554;2022-11-20T05:14:19;12.18;;;7.95;;
19026;SDS011;9646;52.034;5.554;2022-11-20T05:16:46;10.90;;;8.07;;
19026;SDS011;9646;52.034;5.554;2022-11-20T05:19:13;12.68;;;8.15;;
19026;SDS011;9646;52.034;5.554;2022-11-20T05:21:40;10.02;;;7.72;;
19026;SDS011;9646;52.034;5.554;2022-11-20T05:24:07;12.52;;;8.35;;
19026;SDS011;9646;52.034;5.554;2022-11-20T05:26:35;11.43;;;8.07;;
19026;SDS011;9646;52.034;5.554;2022-11-20T05:29:02;11.18;;;8.25;;
19026;SDS011;9646;52.034;5.554;2022-11-20T05:31:30;11.35;;;8.18;;
19026;SDS011;9646;52.034;5.554;2022-11-20T05:33:57;10.27;;;7.95;;
19026;SDS011;9646;52.034;5.554;2022-11-20T05:36:24;11.32;;;7.85;;
19026;SDS011;9646;52.034;5.554;2022-11-20T05:38:51;11.15;;;7.90;;
19026;SDS011;9646;52.034;5.554;2022-11-20T05:41:19;10.98;;;8.15;;
19026;SDS011;9646;52.034;5.554;2022-11-20T05:43:47;10.75;;;8.55;;
19026;SDS011;9646;52.034;5.554;2022-11-20T05:46:16;13.52;;;8.50;;
19026;SDS011;9646;52.034;5.554;2022-11-20T05:48:45;10.00;;;8.25;;
19026;SDS011;9646;52.034;5.554;2022-11-20T05:51:13;11.98;;;8.15;;
19026;SDS011;9646;52.034;5.554;2022-11-20T05:53:40;10.68;;;7.93;;
19026;SDS011;9646;52.034;5.554;2022-11-20T05:56:08;12.05;;;8.85;;
19026;SDS011;9646;52.034;5.554;2022-11-20T05:58:36;11.05;;;8.68;;
19026;SDS011;9646;52.034;5.554;2022-11-20T06:01:04;12.32;;;8.70;;
19026;SDS011;9646;52.034;5.554;2022-11-20T06:03:31;12.00;;;8.25;;
19026;SDS011;9646;52.034;5.554;2022-11-20T06:06:00;13.07;;;8.63;;
19026;SDS011;9646;52.034;5.554;2022-11-20T06:08:27;12.32;;;8.63;;
19026;SDS011;9646;52.034;5.554;2022-11-20T06:10:54;13.93;;;9.15;;
19026;SDS011;9646;52.034;5.554;2022-11-20T06:13:21;11.93;;;8.68;;
19026;SDS011;9646;52.034;5.554;2022-11-20T06:15:49;10.90;;;8.82;;
19026;SDS011;9646;52.034;5.554;2022-11-20T06:18:16;11.48;;;8.65;;
19026;SDS011;9646;52.034;5.554;2022-11-20T06:20:43;12.40;;;8.75;;
19026;SDS011;9646;52.034;5.554;2022-11-20T06:23:11;14.40;;;9.45;;
19026;SDS011;9646;52.034;5.554;2022-11-20T06:25:39;13.13;;;8.95;;
19026;SDS011;9646;52.034;5.554;2022-11-20T06:28:06;11.73;;;8.82;;
19026;SDS011;9646;52.034;5.554;2022-11-20T06:30:33;14.52;;;9.77;;
19026;SDS011;9646;52.034;5.554;2022-11-20T06:33:00;13.82;;;9.70;;
19026;SDS011;9646;52.034;5.554;2022-11-20T06:35:28;14.15;;;9.57;;
19026;SDS011;9646;52.034;5.554;2022-11-20T06:37:55;14.20;;;10.48;;
19026;SDS011;9646;52.034;5.554;2022-11-20T06:40:24;16.38;;;9.98;;
19026;SDS011;9646;52.034;5.554;2022-11-20T06:42:52;13.23;;;9.27;;
19026;SDS011;9646;52.034;5.554;2022-11-20T06:45:19;12.60;;;8.63;;
19026;SDS011;9646;52.034;5.554;2022-11-20T06:47:46;10.98;;;7.88;;
19026;SDS011;9646;52.034;5.554;2022-11-20T06:50:13;11.90;;;8.60;;
19026;SDS011;9646;52.034;5.554;2022-11-20T06:52:40;12.25;;;8.48;;
19026;SDS011;9646;52.034;5.554;2022-11-20T06:55:08;11.68;;;8.82;;
19026;SDS011;9646;52.034;5.554;2022-11-20T06:57:36;12.60;;;8.93;;
19026;SDS011;9646;52.034;5.554;2022-11-20T07:00:04;12.07;;;8.85;;
19026;SDS011;9646;52.034;5.554;2022-11-20T07:02:31;15.60;;;9.93;;
19026;SDS011;9646;52.034;5.554;2022-11-20T07:04:58;12.00;;;9.70;;
19026;SDS011;9646;52.034;5.554;2022-11-20T07:07:25;12.02;;;8.80;;
19026;SDS011;9646;52.034;5.554;2022-11-20T07:09:52;12.15;;;9.40;;
19026;SDS011;9646;52.034;5.554;2022-11-20T07:12:20;11.48;;;8.68;;
19026;SDS011;9646;52.034;5.554;2022-11-20T07:14:48;12.93;;;9.38;;
19026;SDS011;9646;52.034;5.554;2022-11-20T07:17:15;14.20;;;9.98;;
19026;SDS011;9646;52.034;5.554;2022-11-20T07:19:42;13.18;;;9.65;;
19026;SDS011;9646;52.034;5.554;2022-11-20T07:22:09;11.18;;;8.93;;
19026;SDS011;9646;52.034;5.554;2022-11-20T07:24:36;14.38;;;9.63;;
19026;SDS011;9646;52.034;5.554;2022-11-20T07:27:04;11.18;;;8.88;;
19026;SDS011;9646;52.034;5.554;2022-11-20T07:29:31;13.07;;;9.15;;
19026;SDS011;9646;52.034;5.554;2022-11-20T07:31:59;13.98;;;8.32;;
19026;SDS011;9646;52.034;5.554;2022-11-20T07:34:26;11.23;;;8.50;;
19026;SDS011;9646;52.034;5.554;2022-11-20T07:36:53;12.80;;;8.65;;
19026;SDS011;9646;52.034;5.554;2022-11-20T07:39:20;14.43;;;9.70;;
19026;SDS011;9646;52.034;5.554;2022-11-20T07:41:47;15.48;;;10.13;;
19026;SDS011;9646;52.034;5.554;2022-11-20T07:44:14;12.27;;;9.77;;
19026;SDS011;9646;52.034;5.554;2022-11-20T07:46:41;14.35;;;10.10;;
19026;SDS011;9646;52.034;5.554;2022-11-20T07:49:10;13.05;;;9.63;;
19026;SDS011;9646;52.034;5.554;2022-11-20T07:51:37;13.18;;;8.90;;
19026;SDS011;9646;52.034;5.554;2022-11-20T07:54:04;13.32;;;10.13;;
19026;SDS011;9646;52.034;5.554;2022-11-20T07:56:31;12.30;;;9.50;;
19026;SDS011;9646;52.034;5.554;2022-11-20T07:58:58;12.38;;;8.32;;
19026;SDS011;9646;52.034;5.554;2022-11-20T08:01:25;12.52;;;9.15;;
19026;SDS011;9646;52.034;5.554;2022-11-20T08:03:52;13.30;;;8.57;;
19026;SDS011;9646;52.034;5.554;2022-11-20T08:06:20;11.40;;;9.00;;
19026;SDS011;9646;52.034;5.554;2022-11-20T08:08:47;11.52;;;8.73;;
19026;SDS011;9646;52.034;5.554;2022-11-20T08:11:14;10.30;;;8.32;;
19026;SDS011;9646;52.034;5.554;2022-11-20T08:13:59;11.13;;;8.43;;
19026;SDS011;9646;52.034;5.554;2022-11-20T08:16:38;10.30;;;7.88;;
19026;SDS011;9646;52.034;5.554;2022-11-20T08:19:08;11.05;;;8.52;;
19026;SDS011;9646;52.034;5.554;2022-11-20T08:21:37;12.60;;;7.72;;
19026;SDS011;9646;52.034;5.554;2022-11-20T08:24:04;11.73;;;8.63;;
19026;SDS011;9646;52.034;5.554;2022-11-20T08:26:32;12.88;;;8.88;;
19026;SDS011;9646;52.034;5.554;2022-11-20T08:28:59;9.93;;;7.72;;
19026;SDS011;9646;52.034;5.554;2022-11-20T08:31:26;14.35;;;9.13;;
19026;SDS011;9646;52.034;5.554;2022-11-20T08:33:53;11.95;;;8.75;;
19026;SDS011;9646;52.034;5.554;2022-11-20T08:36:20;13.63;;;9.15;;
19026;SDS011;9646;52.034;5.554;2022-11-20T08:38:49;11.90;;;8.13;;
19026;SDS011;9646;52.034;5.554;2022-11-20T08:41:16;11.70;;;8.15;;
19026;SDS011;9646;52.034;5.554;2022-11-20T08:43:51;13.85;;;9.02;;
19026;SDS011;9646;52.034;5.554;2022-11-20T08:46:18;14.10;;;8.75;;
19026;SDS011;9646;52.034;5.554;2022-11-20T08:48:45;13.38;;;9.05;;
19026;SDS011;9646;52.034;5.554;2022-11-20T08:51:12;12.88;;;8.32;;
19026;SDS011;9646;52.034;5.554;2022-11-20T08:53:40;12.50;;;9.00;;
19026;SDS011;9646;52.034;5.554;2022-11-20T08:56:08;12.50;;;8.73;;
19026;SDS011;9646;52.034;5.554;2022-11-20T08:58:36;14.45;;;9.35;;
19026;SDS011;9646;52.034;5.554;2022-11-20T09:01:03;11.60;;;8.63;;
19026;SDS011;9646;52.034;5.554;2022-11-20T09:03:30;11.93;;;7.70;;
19026;SDS011;9646;52.034;5.554;2022-11-20T09:05:58;12.10;;;8.52;;
19026;SDS011;9646;52.034;5.554;2022-11-20T09:08:25;10.60;;;7.63;;
19026;SDS011;9646;52.034;5.554;2022-11-20T09:10:53;11.15;;;8.13;;
19026;SDS011;9646;52.034;5.554;2022-11-20T09:13:22;13.75;;;8.88;;
19026;SDS011;9646;52.034;5.554;2022-11-20T09:15:52;9.98;;;7.53;;
19026;SDS011;9646;52.034;5.554;2022-11-20T09:18:19;11.65;;;7.88;;
19026;SDS011;9646;52.034;5.554;2022-11-20T09:20:46;11.73;;;7.72;;
19026;SDS011;9646;52.034;5.554;2022-11-20T09:23:13;13.32;;;8.40;;
19026;SDS011;9646;52.034;5.554;2022-11-20T09:25:40;10.23;;;7.70;;
19026;SDS011;9646;52.034;5.554;2022-11-20T09:28:08;11.02;;;7.70;;
19026;SDS011;9646;52.034;5.554;2022-11-20T09:30:36;9.45;;;7.35;;
19026;SDS011;9646;52.034;5.554;2022-11-20T09:33:04;9.73;;;7.88;;
19026;SDS011;9646;52.034;5.554;2022-11-20T09:35:31;10.80;;;7.43;;
19026;SDS011;9646;52.034;5.554;2022-11-20T09:37:58;11.73;;;7.80;;
19026;SDS011;9646;52.034;5.554;2022-11-20T09:40:26;11.88;;;8.30;;
19026;SDS011;9646;52.034;5.554;2022-11-20T09:42:55;12.52;;;7.65;;
19026;SDS011;9646;52.034;5.554;2022-11-20T09:45:24;11.27;;;7.32;;
19026;SDS011;9646;52.034;5.554;2022-11-20T09:48:14;12.00;;;8.73;;
19026;SDS011;9646;52.034;5.554;2022-11-20T09:50:45;11.00;;;8.38;;
19026;SDS011;9646;52.034;5.554;2022-11-20T09:53:16;11.98;;;8.52;;
19026;SDS011;9646;52.034;5.554;2022-11-20T09:55:46;13.35;;;8.23;;
19026;SDS011;9646;52.034;5.554;2022-11-20T09:58:15;10.60;;;7.78;;
19026;SDS011;9646;52.034;5.554;2022-11-20T10:00:46;11.95;;;7.63;;
19026;SDS011;9646;52.034;5.554;2022-11-20T10:03:16;9.85;;;7.50;;
19026;SDS011;9646;52.034;5.554;2022-11-20T10:05:46;10.75;;;7.85;;
19026;SDS011;9646;52.034;5.554;2022-11-20T10:08:16;12.40;;;9.20;;
19026;SDS011;9646;52.034;5.554;2022-11-20T10:10:45;12.73;;;9.27;;
19026;SDS011;9646;52.034;5.554;2022-11-20T10:13:28;16.02;;;12.95;;
19026;SDS011;9646;52.034;5.554;2022-11-20T10:16:08;12.65;;;9.15;;
19026;SDS011;9646;52.034;5.554;2022-11-20T10:18:43;12.82;;;8.75;;
19026;SDS011;9646;52.034;5.554;2022-11-20T10:21:15;12.10;;;8.18;;
19026;SDS011;9646;52.034;5.554;2022-11-20T10:26:31;13.25;;;10.18;;
19026;SDS011;9646;52.034;5.554;2022-11-20T10:29:07;11.07;;;8.93;;
19026;SDS011;9646;52.034;5.554;2022-11-20T10:31:37;11.15;;;8.40;;
19026;SDS011;9646;52.034;5.554;2022-11-20T10:34:07;12.45;;;9.68;;
19026;SDS011;9646;52.034;5.554;2022-11-20T10:36:39;14.50;;;9.82;;
19026;SDS011;9646;52.034;5.554;2022-11-20T10:39:11;11.82;;;8.63;;
19026;SDS011;9646;52.034;5.554;2022-11-20T10:41:41;12.20;;;9.35;;
19026;SDS011;9646;52.034;5.554;2022-11-20T10:44:10;10.82;;;8.30;;
19026;SDS011;9646;52.034;5.554;2022-11-20T10:46:39;11.50;;;8.75;;
19026;SDS011;9646;52.034;5.554;2022-11-20T10:49:12;11.88;;;8.45;;
19026;SDS011;9646;52.034;5.554;2022-11-20T10:51:43;12.50;;;8.82;;
19026;SDS011;9646;52.034;5.554;2022-11-20T10:54:17;12.23;;;9.30;;
19026;SDS011;9646;52.034;5.554;2022-11-20T10:56:47;11.82;;;9.55;;
19026;SDS011;9646;52.034;5.554;2022-11-20T10:59:24;11.95;;;8.13;;
19026;SDS011;9646;52.034;5.554;2022-11-20T11:01:53;13.93;;;9.85;;
19026;SDS011;9646;52.034;5.554;2022-11-20T11:04:35;12.23;;;8.45;;
19026;SDS011;9646;52.034;5.554;2022-11-20T11:07:06;13.23;;;9.52;;
19026;SDS011;9646;52.034;5.554;2022-11-20T11:09:36;14.30;;;9.05;;
19026;SDS011;9646;52.034;5.554;2022-11-20T11:12:05;12.52;;;9.73;;
19026;SDS011;9646;52.034;5.554;2022-11-20T11:14:41;13.48;;;9.85;;
19026;SDS011;9646;52.034;5.554;2022-11-20T11:17:17;14.88;;;9.70;;
19026;SDS011;9646;52.034;5.554;2022-11-20T11:19:46;12.02;;;9.07;;
19026;SDS011;9646;52.034;5.554;2022-11-20T11:22:23;11.05;;;8.77;;
19026;SDS011;9646;52.034;5.554;2022-11-20T11:24:51;12.00;;;9.20;;
19026;SDS011;9646;52.034;5.554;2022-11-20T11:27:18;11.40;;;8.05;;
19026;SDS011;9646;52.034;5.554;2022-11-20T11:29:45;12.80;;;9.60;;
19026;SDS011;9646;52.034;5.554;2022-11-20T11:32:13;14.48;;;10.65;;
19026;SDS011;9646;52.034;5.554;2022-11-20T11:34:41;19.38;;;9.50;;
19026;SDS011;9646;52.034;5.554;2022-11-20T11:37:13;13.98;;;8.00;;
19026;SDS011;9646;52.034;5.554;2022-11-20T11:39:41;21.02;;;10.15;;
19026;SDS011;9646;52.034;5.554;2022-11-20T11:42:10;22.75;;;10.82;;
19026;SDS011;9646;52.034;5.554;2022-11-20T11:44:38;25.25;;;11.50;;
19026;SDS011;9646;52.034;5.554;2022-11-20T11:47:29;34.80;;;12.07;;
19026;SDS011;9646;52.034;5.554;2022-11-20T11:50:01;25.48;;;10.70;;
19026;SDS011;9646;52.034;5.554;2022-11-20T11:52:30;28.73;;;12.75;;
19026;SDS011;9646;52.034;5.554;2022-11-20T11:54:58;21.65;;;12.07;;
19026;SDS011;9646;52.034;5.554;2022-11-20T11:57:28;25.90;;;10.90;;
19026;SDS011;9646;52.034;5.554;2022-11-20T11:59:59;24.80;;;11.52;;
19026;SDS011;9646;52.034;5.554;2022-11-20T12:02:31;24.40;;;11.30;;
19026;SDS011;9646;52.034;5.554;2022-11-20T12:05:00;27.90;;;13.00;;
19026;SDS011;9646;52.034;5.554;2022-11-20T12:07:35;26.52;;;13.88;;
19026;SDS011;9646;52.034;5.554;2022-11-20T12:10:05;26.67;;;13.05;;
19026;SDS011;9646;52.034;5.554;2022-11-20T12:12:40;27.88;;;13.55;;
19026;SDS011;9646;52.034;5.554;2022-11-20T12:15:10;21.75;;;12.65;;
19026;SDS011;9646;52.034;5.554;2022-11-20T12:17:38;21.83;;;11.60;;
19026;SDS011;9646;52.034;5.554;2022-11-20T12:20:10;22.83;;;11.43;;
19026;SDS011;9646;52.034;5.554;2022-11-20T12:22:41;23.77;;;12.40;;
19026;SDS011;9646;52.034;5.554;2022-11-20T12:25:12;23.35;;;12.70;;
19026;SDS011;9646;52.034;5.554;2022-11-20T12:27:47;22.08;;;12.15;;
19026;SDS011;9646;52.034;5.554;2022-11-20T12:30:18;20.20;;;12.05;;
19026;SDS011;9646;52.034;5.554;2022-11-20T12:32:58;27.10;;;12.27;;
19026;SDS011;9646;52.034;5.554;2022-11-20T12:35:36;21.30;;;12.10;;
19026;SDS011;9646;52.034;5.554;2022-11-20T12:38:13;22.40;;;11.70;;
19026;SDS011;9646;52.034;5.554;2022-11-20T12:40:49;23.77;;;12.52;;
19026;SDS011;9646;52.034;5.554;2022-11-20T12:43:20;21.05;;;11.57;;
19026;SDS011;9646;52.034;5.554;2022-11-20T12:46:12;22.48;;;11.93;;
19026;SDS011;9646;52.034;5.554;2022-11-20T12:48:45;20.92;;;10.50;;
19026;SDS011;9646;52.034;5.554;2022-11-20T12:54:11;20.50;;;10.10;;
19026;SDS011;9646;52.034;5.554;2022-11-20T12:56:43;17.52;;;10.38;;
19026;SDS011;9646;52.034;5.554;2022-11-20T12:59:19;19.98;;;9.90;;
19026;SDS011;9646;52.034;5.554;2022-11-20T13:01:51;19.65;;;9.85;;
19026;SDS011;9646;52.034;5.554;2022-11-20T13:04:24;17.25;;;9.88;;
19026;SDS011;9646;52.034;5.554;2022-11-20T13:06:55;18.52;;;10.43;;
19026;SDS011;9646;52.034;5.554;2022-11-20T13:09:24;14.52;;;9.55;;
19026;SDS011;9646;52.034;5.554;2022-11-20T13:11:55;16.65;;;10.25;;
19026;SDS011;9646;52.034;5.554;2022-11-20T13:14:30;14.30;;;9.02;;
19026;SDS011;9646;52.034;5.554;2022-11-20T13:17:00;15.13;;;10.00;;
19026;SDS011;9646;52.034;5.554;2022-11-20T13:19:28;15.00;;;10.07;;
19026;SDS011;9646;52.034;5.554;2022-11-20T13:21:55;19.30;;;9.50;;
19026;SDS011;9646;52.034;5.554;2022-11-20T13:24:25;21.02;;;10.82;;
19026;SDS011;9646;52.034;5.554;2022-11-20T13:29:43;15.52;;;9.20;;
19026;SDS011;9646;52.034;5.554;2022-11-20T13:32:13;15.20;;;8.55;;
19026;SDS011;9646;52.034;5.554;2022-11-20T13:34:50;16.05;;;10.10;;
19026;SDS011;9646;52.034;5.554;2022-11-20T13:37:24;20.08;;;10.45;;
19026;SDS011;9646;52.034;5.554;2022-11-20T13:39:53;16.30;;;10.07;;
19026;SDS011;9646;52.034;5.554;2022-11-20T13:42:31;17.40;;;9.52;;
19026;SDS011;9646;52.034;5.554;2022-11-20T13:45:02;17.55;;;10.05;;
19026;SDS011;9646;52.034;5.554;2022-11-20T13:47:29;18.40;;;9.15;;
19026;SDS011;9646;52.034;5.554;2022-11-20T13:49:57;16.67;;;9.38;;
19026;SDS011;9646;52.034;5.554;2022-11-20T13:52:35;16.20;;;9.60;;
19026;SDS011;9646;52.034;5.554;2022-11-20T13:55:10;15.43;;;9.27;;
19026;SDS011;9646;52.034;5.554;2022-11-20T13:57:44;16.77;;;9.25;;
19026;SDS011;9646;52.034;5.554;2022-11-20T14:00:14;17.77;;;11.02;;
19026;SDS011;9646;52.034;5.554;2022-11-20T14:02:42;18.27;;;9.63;;
19026;SDS011;9646;52.034;5.554;2022-11-20T14:05:15;18.17;;;11.00;;
19026;SDS011;9646;52.034;5.554;2022-11-20T14:07:44;17.02;;;10.18;;
19026;SDS011;9646;52.034;5.554;2022-11-20T14:10:20;16.15;;;9.73;;
19026;SDS011;9646;52.034;5.554;2022-11-20T14:12:47;22.83;;;10.93;;
19026;SDS011;9646;52.034;5.554;2022-11-20T14:15:23;15.57;;;9.80;;
19026;SDS011;9646;52.034;5.554;2022-11-20T14:17:51;16.48;;;10.00;;
19026;SDS011;9646;52.034;5.554;2022-11-20T14:20:18;17.75;;;11.02;;
19026;SDS011;9646;52.034;5.554;2022-11-20T14:22:48;17.80;;;11.23;;
19026;SDS011;9646;52.034;5.554;2022-11-20T14:25:20;14.90;;;9.60;;
19026;SDS011;9646;52.034;5.554;2022-11-20T14:27:50;17.92;;;9.73;;
19026;SDS011;9646;52.034;5.554;2022-11-20T14:30:18;14.77;;;8.75;;
19026;SDS011;9646;52.034;5.554;2022-11-20T14:32:46;13.25;;;8.45;;
19026;SDS011;9646;52.034;5.554;2022-11-20T14:35:14;17.73;;;9.23;;
19026;SDS011;9646;52.034;5.554;2022-11-20T14:37:44;17.13;;;10.43;;
19026;SDS011;9646;52.034;5.554;2022-11-20T14:40:29;15.85;;;9.93;;
19026;SDS011;9646;52.034;5.554;2022-11-20T14:42:56;18.17;;;9.13;;
19026;SDS011;9646;52.034;5.554;2022-11-20T14:45:24;14.63;;;8.88;;
19026;SDS011;9646;52.034;5.554;2022-11-20T14:47:52;14.02;;;10.05;;
19026;SDS011;9646;52.034;5.554;2022-11-20T14:50:20;13.13;;;8.25;;
19026;SDS011;9646;52.034;5.554;2022-11-20T14:52:52;14.63;;;8.73;;
19026;SDS011;9646;52.034;5.554;2022-11-20T14:55:26;13.90;;;9.00;;
19026;SDS011;9646;52.034;5.554;2022-11-20T14:57:55;16.75;;;9.57;;
19026;SDS011;9646;52.034;5.554;2022-11-20T15:00:23;12.30;;;8.13;;
19026;SDS011;9646;52.034;5.554;2022-11-20T15:02:50;13.73;;;9.45;;
19026;SDS011;9646;52.034;5.554;2022-11-20T15:05:18;14.45;;;8.43;;